Hauptseite
METAR-TAF:

METAR-TAF

Flughäfen :

Bad Vöslau, Österreich

Flugplatz Vöslau-Kottingbrunn

Breite: 47-57-52N, Länge: 016-15-34E, Höhe: 233 m

Beobachtung

Neuester Wetterbericht von vor 1 Stunde und 16 Minuten, um 17:00 UTC
Wind 7 kt aus Ost
Temperatur 22°C
Luftfeuchtigkeit 33%
Luftdruck

METAR: LOAV 201700Z 09007KT 40KM BKN300CI 22/05

Zeit: 20:16 (18:16 UTC)

Prognose

Neuester Wetterbericht von vor 6 Stunden und 51 Minuten, um 11:25 UTC
Gültige Prognose vom 20 um 12 UTC bis 20 um 21 UTC
Wind 6 kt aus Ost/Nordost
Sichtweite 10 km oder mehr
Leicht bewölkt in der Höhe von 6000 ft
Übergehend zu
vom 20 um 17 UTC bis 20 um 19 UTC
Wind 2 kt aus unterschiedlichen Richtungen

TAF: LOAV 201125Z 2012/2021 07006KT 9999 FEW060 BECMG 2017/2019 VRB02KT

Wetterbeobachtungen und Prognosen von mehr als 4000 Flughäfen (METAR und TAF Bericht).

Die verfügbaren Stationen werden durch gelbe und rote Markierungen auf der Karte dargestellt.

Führen Sie die Maus auf sie, um den Namen der Station zu sehen.

Darauf klicken, um die Beobachtung von Wetterbeobachtungen und Prognosen zu sehen.

Um die Karte zu ändern : klicken Sie auf den grünen Tasten mit einem schwarzen Kreuz Zum Vergrößern, auf den grünen Button mit einem Gedankenstrich zu verkleinern, oder auf die grünen Pfeile für benachbarte Karten.


METAR-TAF: